sensor_id;sensor_type;location;lat;lon;timestamp;pressure;altitude;pressure_sealevel;temperature;humidity
61010;BME280;46897;55.340;86.082;2022-07-15T01:01:25;99752.97;;;14.36;68.67
61010;BME280;46897;55.340;86.082;2022-07-15T01:03:55;99930.75;;;15.53;68.54
61010;BME280;46897;55.340;86.082;2022-07-15T01:06:26;99816.69;;;14.92;68.19
61010;BME280;46897;55.340;86.082;2022-07-15T01:08:58;99835.06;;;15.36;68.40
61010;BME280;46897;55.340;86.082;2022-07-15T01:11:28;99935.41;;;16.26;68.42
61010;BME280;46897;55.340;86.082;2022-07-15T01:13:58;99935.22;;;16.54;68.20
61010;BME280;46897;55.340;86.082;2022-07-15T01:16:30;99935.22;;;16.78;67.83
61010;BME280;46897;55.340;86.082;2022-07-15T01:19:00;99929.53;;;17.06;67.63
61010;BME280;46897;55.340;86.082;2022-07-15T01:21:30;99930.06;;;17.23;67.62
61010;BME280;46897;55.340;86.082;2022-07-15T01:24:00;99939.84;;;17.35;67.48
61010;BME280;46897;55.340;86.082;2022-07-15T01:26:29;99932.47;;;17.50;67.24
61010;BME280;46897;55.340;86.082;2022-07-15T01:28:58;99915.31;;;17.53;67.08
61010;BME280;46897;55.340;86.082;2022-07-15T01:31:27;99938.81;;;17.83;66.78
61010;BME280;46897;55.340;86.082;2022-07-15T01:33:57;99942.00;;;17.99;66.31
61010;BME280;46897;55.340;86.082;2022-07-15T01:36:26;99918.03;;;17.98;66.03
61010;BME280;46897;55.340;86.082;2022-07-15T01:38:57;99937.72;;;18.19;65.83
61010;BME280;46897;55.340;86.082;2022-07-15T01:41:46;99932.75;;;18.26;65.63
61010;BME280;46897;55.340;86.082;2022-07-15T01:44:15;99929.97;;;18.27;65.24
61010;BME280;46897;55.340;86.082;2022-07-15T01:46:44;99918.16;;;18.19;64.96
61010;BME280;46897;55.340;86.082;2022-07-15T01:49:14;99928.00;;;18.18;65.01
61010;BME280;46897;55.340;86.082;2022-07-15T01:51:54;99922.78;;;18.17;65.14
61010;BME280;46897;55.340;86.082;2022-07-15T01:54:26;99935.31;;;18.27;64.91
61010;BME280;46897;55.340;86.082;2022-07-15T01:56:55;99932.38;;;18.31;64.51
61010;BME280;46897;55.340;86.082;2022-07-15T01:59:25;99928.00;;;18.30;64.76
61010;BME280;46897;55.340;86.082;2022-07-15T02:01:58;99927.63;;;18.34;64.62
61010;BME280;46897;55.340;86.082;2022-07-15T02:04:27;99918.38;;;18.27;64.30
61010;BME280;46897;55.340;86.082;2022-07-15T02:06:56;99926.78;;;18.34;64.32
61010;BME280;46897;55.340;86.082;2022-07-15T02:09:27;99949.16;;;18.44;63.97
61010;BME280;46897;55.340;86.082;2022-07-15T02:11:56;99918.63;;;18.35;64.16
61010;BME280;46897;55.340;86.082;2022-07-15T02:14:25;99939.88;;;18.59;63.96
61010;BME280;46897;55.340;86.082;2022-07-15T02:16:55;99934.59;;;18.69;64.02
61010;BME280;46897;55.340;86.082;2022-07-15T02:19:24;99932.00;;;18.79;63.81
61010;BME280;46897;55.340;86.082;2022-07-15T02:21:53;99919.13;;;18.73;63.44
61010;BME280;46897;55.340;86.082;2022-07-15T02:24:22;99915.72;;;18.82;63.65
61010;BME280;46897;55.340;86.082;2022-07-15T02:26:53;99930.00;;;19.03;63.53
61010;BME280;46897;55.340;86.082;2022-07-15T02:29:22;99939.44;;;19.19;63.13
61010;BME280;46897;55.340;86.082;2022-07-15T02:31:51;99938.53;;;19.30;63.12
61010;BME280;46897;55.340;86.082;2022-07-15T02:34:21;99938.63;;;19.39;62.69
61010;BME280;46897;55.340;86.082;2022-07-15T02:36:50;99933.44;;;19.48;62.68
61010;BME280;46897;55.340;86.082;2022-07-15T02:39:19;99929.25;;;19.55;62.32
61010;BME280;46897;55.340;86.082;2022-07-15T02:41:48;99943.78;;;19.73;62.04
61010;BME280;46897;55.340;86.082;2022-07-15T02:44:19;99938.00;;;19.78;62.06
61010;BME280;46897;55.340;86.082;2022-07-15T02:46:48;99944.72;;;19.93;61.72
61010;BME280;46897;55.340;86.082;2022-07-15T02:49:18;99946.72;;;20.01;61.42
61010;BME280;46897;55.340;86.082;2022-07-15T02:51:52;99933.31;;;20.01;61.34
61010;BME280;46897;55.340;86.082;2022-07-15T02:54:21;99949.03;;;20.06;61.30
61010;BME280;46897;55.340;86.082;2022-07-15T02:56:51;99932.75;;;19.97;61.19
61010;BME280;46897;55.340;86.082;2022-07-15T02:59:21;99934.91;;;20.13;60.85
61010;BME280;46897;55.340;86.082;2022-07-15T03:01:51;99893.16;;;19.99;60.86
61010;BME280;46897;55.340;86.082;2022-07-15T03:04:20;99906.09;;;20.15;60.71
61010;BME280;46897;55.340;86.082;2022-07-15T03:06:49;99932.16;;;20.34;60.40
61010;BME280;46897;55.340;86.082;2022-07-15T03:09:18;99932.03;;;20.36;60.44
61010;BME280;46897;55.340;86.082;2022-07-15T03:11:48;99930.44;;;20.33;60.58
61010;BME280;46897;55.340;86.082;2022-07-15T03:14:18;99906.91;;;20.16;60.65
61010;BME280;46897;55.340;86.082;2022-07-15T03:16:49;99914.91;;;20.37;60.64
61010;BME280;46897;55.340;86.082;2022-07-15T03:19:18;99939.63;;;20.61;60.49
61010;BME280;46897;55.340;86.082;2022-07-15T03:21:48;99937.34;;;20.76;60.09
61010;BME280;46897;55.340;86.082;2022-07-15T03:24:17;99931.72;;;20.89;60.10
61010;BME280;46897;55.340;86.082;2022-07-15T03:26:46;99931.13;;;20.95;60.03
61010;BME280;46897;55.340;86.082;2022-07-15T03:29:16;99930.59;;;21.01;59.59
61010;BME280;46897;55.340;86.082;2022-07-15T03:31:45;99930.59;;;21.01;59.49
61010;BME280;46897;55.340;86.082;2022-07-15T03:34:16;99929.84;;;20.99;59.67
61010;BME280;46897;55.340;86.082;2022-07-15T03:36:45;99920.38;;;20.95;59.81
61010;BME280;46897;55.340;86.082;2022-07-15T03:39:15;99942.47;;;21.09;59.65
61010;BME280;46897;55.340;86.082;2022-07-15T03:41:44;99930.16;;;20.96;58.65
61010;BME280;46897;55.340;86.082;2022-07-15T03:44:14;99933.13;;;20.93;58.86
61010;BME280;46897;55.340;86.082;2022-07-15T03:46:44;99922.94;;;20.87;59.20
61010;BME280;46897;55.340;86.082;2022-07-15T03:49:16;99927.03;;;21.01;59.28
61010;BME280;46897;55.340;86.082;2022-07-15T03:51:45;99928.44;;;21.15;59.35
61010;BME280;46897;55.340;86.082;2022-07-15T03:54:15;99929.69;;;21.40;59.12
61010;BME280;46897;55.340;86.082;2022-07-15T03:56:44;99930.53;;;21.60;58.80
61010;BME280;46897;55.340;86.082;2022-07-15T03:59:15;99933.44;;;21.86;58.12
61010;BME280;46897;55.340;86.082;2022-07-15T04:01:44;99908.88;;;21.99;57.76
61010;BME280;46897;55.340;86.082;2022-07-15T04:04:13;99919.00;;;22.15;56.79
61010;BME280;46897;55.340;86.082;2022-07-15T04:06:44;99890.84;;;21.99;55.96
61010;BME280;46897;55.340;86.082;2022-07-15T04:09:14;99910.75;;;22.26;56.19
61010;BME280;46897;55.340;86.082;2022-07-15T04:11:44;99914.34;;;22.45;56.19
61010;BME280;46897;55.340;86.082;2022-07-15T04:14:15;99923.84;;;22.67;56.16
61010;BME280;46897;55.340;86.082;2022-07-15T04:16:45;99904.72;;;22.78;55.85
61010;BME280;46897;55.340;86.082;2022-07-15T04:19:14;99852.88;;;22.66;55.67
61010;BME280;46897;55.340;86.082;2022-07-15T04:21:45;99913.25;;;23.27;54.98
61010;BME280;46897;55.340;86.082;2022-07-15T04:24:15;99924.88;;;23.46;54.96
61010;BME280;46897;55.340;86.082;2022-07-15T04:26:50;99892.38;;;23.55;54.44
61010;BME280;46897;55.340;86.082;2022-07-15T04:29:20;99899.19;;;23.86;53.98
61010;BME280;46897;55.340;86.082;2022-07-15T04:31:49;99858.28;;;23.81;53.99
61010;BME280;46897;55.340;86.082;2022-07-15T04:34:18;99904.03;;;24.17;53.43
61010;BME280;46897;55.340;86.082;2022-07-15T04:36:49;99902.06;;;24.35;53.48
61010;BME280;46897;55.340;86.082;2022-07-15T04:39:18;99885.53;;;24.46;53.25
61010;BME280;46897;55.340;86.082;2022-07-15T04:41:47;99892.88;;;24.70;52.70
61010;BME280;46897;55.340;86.082;2022-07-15T04:44:17;99881.25;;;24.86;52.53
61010;BME280;46897;55.340;86.082;2022-07-15T04:46:47;99876.66;;;25.03;52.34
61010;BME280;46897;55.340;86.082;2022-07-15T04:49:16;99895.47;;;25.46;52.40
61010;BME280;46897;55.340;86.082;2022-07-15T04:52:04;99896.72;;;25.91;51.85
61010;BME280;46897;55.340;86.082;2022-07-15T04:54:36;99878.53;;;26.08;51.39
61010;BME280;46897;55.340;86.082;2022-07-15T04:57:05;99891.69;;;26.51;51.42
61010;BME280;46897;55.340;86.082;2022-07-15T04:59:35;99843.88;;;26.49;50.99
61010;BME280;46897;55.340;86.082;2022-07-15T05:02:04;99792.69;;;26.46;50.95
61010;BME280;46897;55.340;86.082;2022-07-15T05:04:33;99878.44;;;27.25;50.24
61010;BME280;46897;55.340;86.082;2022-07-15T05:07:04;99877.44;;;27.41;50.04
61010;BME280;46897;55.340;86.082;2022-07-15T05:09:33;99791.00;;;26.92;49.38
61010;BME280;46897;55.340;86.082;2022-07-15T05:12:03;99859.16;;;27.35;49.17
61010;BME280;46897;55.340;86.082;2022-07-15T05:14:36;99865.91;;;27.39;48.94
61010;BME280;46897;55.340;86.082;2022-07-15T05:17:08;99874.94;;;27.39;49.19
61010;BME280;46897;55.340;86.082;2022-07-15T05:19:38;99839.66;;;27.16;48.55
61010;BME280;46897;55.340;86.082;2022-07-15T05:22:08;99877.75;;;27.23;48.39
61010;BME280;46897;55.340;86.082;2022-07-15T05:24:37;99873.41;;;26.99;48.01
61010;BME280;46897;55.340;86.082;2022-07-15T05:27:07;99881.78;;;26.66;47.97
61010;BME280;46897;55.340;86.082;2022-07-15T05:29:36;99853.19;;;26.24;48.75
61010;BME280;46897;55.340;86.082;2022-07-15T05:32:05;99867.69;;;26.00;49.20
61010;BME280;46897;55.340;86.082;2022-07-15T05:34:35;99876.41;;;25.79;48.99
61010;BME280;46897;55.340;86.082;2022-07-15T05:37:04;99872.56;;;25.57;49.13
61010;BME280;46897;55.340;86.082;2022-07-15T05:39:36;99876.47;;;25.54;49.65
61010;BME280;46897;55.340;86.082;2022-07-15T05:42:20;99854.81;;;25.46;49.43
61010;BME280;46897;55.340;86.082;2022-07-15T05:44:50;99875.44;;;25.63;49.32
61010;BME280;46897;55.340;86.082;2022-07-15T05:47:19;99854.28;;;25.50;49.25
61010;BME280;46897;55.340;86.082;2022-07-15T05:49:49;99855.19;;;25.26;49.04
61010;BME280;46897;55.340;86.082;2022-07-15T05:52:19;99874.13;;;25.02;49.16
61010;BME280;46897;55.340;86.082;2022-07-15T05:54:49;99857.00;;;24.60;49.37
61010;BME280;46897;55.340;86.082;2022-07-15T05:57:19;99846.63;;;24.39;49.79
61010;BME280;46897;55.340;86.082;2022-07-15T05:59:48;99875.03;;;24.35;49.85
61010;BME280;46897;55.340;86.082;2022-07-15T06:02:19;99862.66;;;24.24;49.70
61010;BME280;46897;55.340;86.082;2022-07-15T06:04:49;99854.72;;;24.23;49.74
61010;BME280;46897;55.340;86.082;2022-07-15T06:07:18;99850.97;;;24.24;49.47
61010;BME280;46897;55.340;86.082;2022-07-15T06:09:49;99849.66;;;24.28;49.28
61010;BME280;46897;55.340;86.082;2022-07-15T06:12:18;99850.13;;;24.15;49.32
61010;BME280;46897;55.340;86.082;2022-07-15T06:14:47;99839.44;;;23.97;49.16
61010;BME280;46897;55.340;86.082;2022-07-15T06:17:16;99838.72;;;23.95;49.57
61010;BME280;46897;55.340;86.082;2022-07-15T06:19:46;99804.00;;;23.74;49.60
61010;BME280;46897;55.340;86.082;2022-07-15T06:22:15;99835.56;;;24.00;49.58
61010;BME280;46897;55.340;86.082;2022-07-15T06:24:45;99832.88;;;24.08;49.76
61010;BME280;46897;55.340;86.082;2022-07-15T06:27:15;99824.97;;;24.23;49.50
61010;BME280;46897;55.340;86.082;2022-07-15T06:29:45;99828.09;;;24.52;49.59
61010;BME280;46897;55.340;86.082;2022-07-15T06:32:14;99822.53;;;24.79;49.50
61010;BME280;46897;55.340;86.082;2022-07-15T06:34:46;99814.91;;;24.90;49.39
61010;BME280;46897;55.340;86.082;2022-07-15T06:37:15;99815.59;;;24.92;49.16
61010;BME280;46897;55.340;86.082;2022-07-15T06:39:44;99798.00;;;24.72;48.76
61010;BME280;46897;55.340;86.082;2022-07-15T06:42:17;99794.91;;;24.50;48.57
61010;BME280;46897;55.340;86.082;2022-07-15T06:44:47;99805.91;;;24.32;48.81
61010;BME280;46897;55.340;86.082;2022-07-15T06:47:16;99804.53;;;24.28;49.12
61010;BME280;46897;55.340;86.082;2022-07-15T06:49:46;99798.09;;;24.21;48.98
61010;BME280;46897;55.340;86.082;2022-07-15T06:52:16;99801.63;;;24.22;49.03
61010;BME280;46897;55.340;86.082;2022-07-15T06:54:46;99776.25;;;23.98;48.73
61010;BME280;46897;55.340;86.082;2022-07-15T06:57:17;99799.06;;;24.04;48.99
61010;BME280;46897;55.340;86.082;2022-07-15T06:59:50;99776.22;;;23.82;49.10
61010;BME280;46897;55.340;86.082;2022-07-15T07:02:19;99772.09;;;23.78;48.94
61010;BME280;46897;55.340;86.082;2022-07-15T07:04:50;99767.47;;;23.96;48.97
61010;BME280;46897;55.340;86.082;2022-07-15T07:07:20;99792.84;;;24.20;48.79
61010;BME280;46897;55.340;86.082;2022-07-15T07:09:50;99801.69;;;24.38;48.61
61010;BME280;46897;55.340;86.082;2022-07-15T07:12:21;99801.38;;;24.49;48.85
61010;BME280;46897;55.340;86.082;2022-07-15T07:14:50;99796.97;;;24.57;48.61
61010;BME280;46897;55.340;86.082;2022-07-15T07:17:21;99785.16;;;24.58;48.49
61010;BME280;46897;55.340;86.082;2022-07-15T07:19:50;99747.25;;;24.33;48.34
61010;BME280;46897;55.340;86.082;2022-07-15T07:22:20;99774.00;;;24.52;48.29
61010;BME280;46897;55.340;86.082;2022-07-15T07:24:50;99789.22;;;24.62;48.33
61010;BME280;46897;55.340;86.082;2022-07-15T07:27:23;99785.84;;;24.51;48.23
61010;BME280;46897;55.340;86.082;2022-07-15T07:29:54;99780.56;;;24.50;48.27
61010;BME280;46897;55.340;86.082;2022-07-15T07:32:23;99774.63;;;24.46;48.39
61010;BME280;46897;55.340;86.082;2022-07-15T07:34:53;99781.44;;;24.59;48.29
61010;BME280;46897;55.340;86.082;2022-07-15T07:37:23;99757.94;;;24.51;47.98
61010;BME280;46897;55.340;86.082;2022-07-15T07:39:54;99735.13;;;24.53;48.20
61010;BME280;46897;55.340;86.082;2022-07-15T07:42:26;99780.41;;;24.92;47.97
61010;BME280;46897;55.340;86.082;2022-07-15T07:44:56;99779.38;;;25.02;48.06
61010;BME280;46897;55.340;86.082;2022-07-15T07:47:27;99771.56;;;25.07;47.73
61010;BME280;46897;55.340;86.082;2022-07-15T07:49:56;99766.03;;;25.00;47.68
61010;BME280;46897;55.340;86.082;2022-07-15T07:52:26;99771.97;;;24.96;47.61
61010;BME280;46897;55.340;86.082;2022-07-15T07:54:56;99771.63;;;24.90;47.84
61010;BME280;46897;55.340;86.082;2022-07-15T07:57:28;99761.81;;;24.81;47.60
61010;BME280;46897;55.340;86.082;2022-07-15T07:59:58;99776.19;;;24.90;47.68
61010;BME280;46897;55.340;86.082;2022-07-15T08:02:27;99774.66;;;24.87;47.36
61010;BME280;46897;55.340;86.082;2022-07-15T08:04:56;99735.97;;;24.54;47.46
61010;BME280;46897;55.340;86.082;2022-07-15T08:07:26;99767.56;;;24.70;47.30
61010;BME280;46897;55.340;86.082;2022-07-15T08:09:57;99773.31;;;24.59;47.48
61010;BME280;46897;55.340;86.082;2022-07-15T08:12:32;99765.53;;;24.47;47.65
61010;BME280;46897;55.340;86.082;2022-07-15T08:15:01;99700.56;;;24.06;47.81
61010;BME280;46897;55.340;86.082;2022-07-15T08:17:31;99775.31;;;24.48;47.96
61010;BME280;46897;55.340;86.082;2022-07-15T08:20:01;99748.75;;;24.27;47.75
61010;BME280;46897;55.340;86.082;2022-07-15T08:22:32;99766.16;;;24.33;47.73
61010;BME280;46897;55.340;86.082;2022-07-15T08:25:01;99770.75;;;24.32;47.74
61010;BME280;46897;55.340;86.082;2022-07-15T08:27:32;99767.69;;;24.27;47.89
61010;BME280;46897;55.340;86.082;2022-07-15T08:30:01;99773.59;;;24.23;47.97
61010;BME280;46897;55.340;86.082;2022-07-15T08:32:30;99763.28;;;24.18;47.80
61010;BME280;46897;55.340;86.082;2022-07-15T08:35:00;99756.88;;;24.11;48.04
61010;BME280;46897;55.340;86.082;2022-07-15T08:37:35;99769.66;;;24.01;47.95
61010;BME280;46897;55.340;86.082;2022-07-15T08:40:06;99771.97;;;23.87;47.98
61010;BME280;46897;55.340;86.082;2022-07-15T08:42:39;99761.94;;;23.71;47.95
61010;BME280;46897;55.340;86.082;2022-07-15T08:45:11;99774.59;;;23.63;48.21
61010;BME280;46897;55.340;86.082;2022-07-15T08:47:42;99773.84;;;23.52;48.52
61010;BME280;46897;55.340;86.082;2022-07-15T08:50:21;99770.28;;;23.44;48.36
61010;BME280;46897;55.340;86.082;2022-07-15T08:52:51;99739.59;;;23.19;48.49
61010;BME280;46897;55.340;86.082;2022-07-15T08:55:20;99762.59;;;23.31;48.46
61010;BME280;46897;55.340;86.082;2022-07-15T08:57:53;99776.75;;;23.25;48.50
61010;BME280;46897;55.340;86.082;2022-07-15T09:00:24;99770.28;;;23.17;48.36
61010;BME280;46897;55.340;86.082;2022-07-15T09:02:57;99771.84;;;23.20;48.48
61010;BME280;46897;55.340;86.082;2022-07-15T09:05:29;99775.88;;;23.16;48.29
61010;BME280;46897;55.340;86.082;2022-07-15T09:08:02;99764.44;;;23.22;48.44
61010;BME280;46897;55.340;86.082;2022-07-15T09:10:46;99762.41;;;23.24;48.43
61010;BME280;46897;55.340;86.082;2022-07-15T09:13:32;99766.78;;;23.25;48.20
61010;BME280;46897;55.340;86.082;2022-07-15T09:16:03;99756.28;;;23.14;48.40
61010;BME280;46897;55.340;86.082;2022-07-15T09:18:35;99778.09;;;23.21;48.37
61010;BME280;46897;55.340;86.082;2022-07-15T09:21:14;99753.69;;;23.04;48.36
61010;BME280;46897;55.340;86.082;2022-07-15T09:23:44;99757.66;;;23.18;48.47
61010;BME280;46897;55.340;86.082;2022-07-15T09:26:25;99763.41;;;23.23;48.68
61010;BME280;46897;55.340;86.082;2022-07-15T09:28:57;99757.19;;;23.23;48.37
61010;BME280;46897;55.340;86.082;2022-07-15T09:31:31;99755.28;;;23.15;48.42
61010;BME280;46897;55.340;86.082;2022-07-15T09:34:16;99767.81;;;23.24;48.50
61010;BME280;46897;55.340;86.082;2022-07-15T09:36:52;99753.63;;;23.22;48.31
61010;BME280;46897;55.340;86.082;2022-07-15T09:39:25;99760.78;;;23.31;48.31
61010;BME280;46897;55.340;86.082;2022-07-15T09:41:54;99762.63;;;23.39;48.16
61010;BME280;46897;55.340;86.082;2022-07-15T09:44:31;99767.59;;;23.44;48.23
61010;BME280;46897;55.340;86.082;2022-07-15T09:47:03;99760.47;;;23.43;47.90
61010;BME280;46897;55.340;86.082;2022-07-15T09:49:34;99759.78;;;23.41;47.86
61010;BME280;46897;55.340;86.082;2022-07-15T09:52:08;99748.31;;;23.39;48.09
61010;BME280;46897;55.340;86.082;2022-07-15T09:54:40;99684.19;;;23.06;47.88
61010;BME280;46897;55.340;86.082;2022-07-15T09:57:15;99744.78;;;23.46;47.86
61010;BME280;46897;55.340;86.082;2022-07-15T09:59:48;99756.00;;;23.60;47.79
61010;BME280;46897;55.340;86.082;2022-07-15T10:02:19;99755.53;;;23.64;47.69
61010;BME280;46897;55.340;86.082;2022-07-15T10:04:50;99746.72;;;23.62;47.83
61010;BME280;46897;55.340;86.082;2022-07-15T10:07:22;99737.25;;;23.58;47.54
61010;BME280;46897;55.340;86.082;2022-07-15T10:09:56;99753.88;;;23.80;47.67
61010;BME280;46897;55.340;86.082;2022-07-15T10:12:57;99682.69;;;23.46;47.58
61010;BME280;46897;55.340;86.082;2022-07-15T10:15:42;99753.94;;;23.96;47.50
61010;BME280;46897;55.340;86.082;2022-07-15T10:18:25;99757.84;;;24.10;47.16
61010;BME280;46897;55.340;86.082;2022-07-15T10:21:05;99761.59;;;24.17;47.44
61010;BME280;46897;55.340;86.082;2022-07-15T10:24:01;99762.63;;;24.41;47.19
61010;BME280;46897;55.340;86.082;2022-07-15T10:26:40;99763.53;;;24.58;47.14
61010;BME280;46897;55.340;86.082;2022-07-15T10:29:13;99760.44;;;24.85;47.22
61010;BME280;46897;55.340;86.082;2022-07-15T10:31:55;99750.25;;;25.12;47.08
61010;BME280;46897;55.340;86.082;2022-07-15T10:34:29;99752.75;;;25.38;46.90
61010;BME280;46897;55.340;86.082;2022-07-15T10:37:07;99744.72;;;25.61;46.81
61010;BME280;46897;55.340;86.082;2022-07-15T10:39:54;99761.06;;;26.07;46.46
61010;BME280;46897;55.340;86.082;2022-07-15T10:42:25;99750.22;;;26.31;46.66
61010;BME280;46897;55.340;86.082;2022-07-15T10:45:07;99759.53;;;26.59;46.18
61010;BME280;46897;55.340;86.082;2022-07-15T10:47:38;99759.88;;;26.79;45.75
61010;BME280;46897;55.340;86.082;2022-07-15T10:50:34;99760.16;;;26.84;45.47
61010;BME280;46897;55.340;86.082;2022-07-15T10:53:19;99757.44;;;26.84;45.65
61010;BME280;46897;55.340;86.082;2022-07-15T10:55:48;99756.63;;;26.84;46.51
61010;BME280;46897;55.340;86.082;2022-07-15T10:58:18;99750.00;;;26.63;46.09
61010;BME280;46897;55.340;86.082;2022-07-15T11:00:47;99752.03;;;26.38;45.89
61010;BME280;46897;55.340;86.082;2022-07-15T11:03:19;99746.00;;;26.05;45.55
61010;BME280;46897;55.340;86.082;2022-07-15T11:06:03;99755.06;;;25.89;45.66
61010;BME280;46897;55.340;86.082;2022-07-15T11:11:50;99731.97;;;25.30;46.20
61010;BME280;46897;55.340;86.082;2022-07-15T11:14:47;99750.25;;;25.12;46.25
61010;BME280;46897;55.340;86.082;2022-07-15T11:17:24;99741.88;;;24.82;46.30
61010;BME280;46897;55.340;86.082;2022-07-15T11:19:57;99728.69;;;24.63;46.65
61010;BME280;46897;55.340;86.082;2022-07-15T11:22:28;99752.69;;;24.74;46.82
61010;BME280;46897;55.340;86.082;2022-07-15T11:24:57;99747.28;;;24.82;46.82
61010;BME280;46897;55.340;86.082;2022-07-15T11:27:29;99741.84;;;24.90;46.88
61010;BME280;46897;55.340;86.082;2022-07-15T11:30:02;99739.13;;;24.99;46.55
61010;BME280;46897;55.340;86.082;2022-07-15T11:32:33;99742.13;;;25.12;46.71
61010;BME280;46897;55.340;86.082;2022-07-15T11:35:05;99714.06;;;25.13;46.27
61010;BME280;46897;55.340;86.082;2022-07-15T11:37:38;99746.97;;;25.41;46.42
61010;BME280;46897;55.340;86.082;2022-07-15T11:40:11;99734.34;;;25.65;46.20
61010;BME280;46897;55.340;86.082;2022-07-15T11:43:02;99712.44;;;25.75;46.60
61010;BME280;46897;55.340;86.082;2022-07-15T11:45:49;99731.72;;;25.80;46.13
61010;BME280;46897;55.340;86.082;2022-07-15T11:48:18;99728.63;;;25.60;46.19
61010;BME280;46897;55.340;86.082;2022-07-15T11:50:52;99724.50;;;25.33;46.72
61010;BME280;46897;55.340;86.082;2022-07-15T11:53:23;99719.13;;;25.08;46.88
61010;BME280;46897;55.340;86.082;2022-07-15T11:55:55;99713.25;;;24.80;47.28
61010;BME280;46897;55.340;86.082;2022-07-15T11:58:26;99736.44;;;24.74;47.51
61010;BME280;46897;55.340;86.082;2022-07-15T12:00:56;99697.72;;;24.41;47.72
61010;BME280;46897;55.340;86.082;2022-07-15T12:03:33;99720.72;;;24.45;47.83
61010;BME280;46897;55.340;86.082;2022-07-15T12:06:10;99707.34;;;24.35;47.98
61010;BME280;46897;55.340;86.082;2022-07-15T12:08:43;99727.31;;;24.59;48.33
61010;BME280;46897;55.340;86.082;2022-07-15T12:11:21;99706.69;;;24.82;48.12
61010;BME280;46897;55.340;86.082;2022-07-15T12:13:55;99699.16;;;25.17;47.92
61010;BME280;46897;55.340;86.082;2022-07-15T12:16:28;99674.94;;;25.63;47.04
61010;BME280;46897;55.340;86.082;2022-07-15T12:19:00;99717.16;;;26.12;46.76
61010;BME280;46897;55.340;86.082;2022-07-15T12:21:32;99732.94;;;26.08;46.53
61010;BME280;46897;55.340;86.082;2022-07-15T12:24:07;99718.00;;;25.81;46.37
61010;BME280;46897;55.340;86.082;2022-07-15T12:26:38;99713.03;;;25.62;46.46
61010;BME280;46897;55.340;86.082;2022-07-15T12:29:10;99703.50;;;25.35;46.79
61010;BME280;46897;55.340;86.082;2022-07-15T12:31:41;99702.22;;;25.06;46.95
61010;BME280;46897;55.340;86.082;2022-07-15T12:34:11;99680.69;;;24.65;47.27
61010;BME280;46897;55.340;86.082;2022-07-15T12:36:42;99717.34;;;24.67;47.38
61010;BME280;46897;55.340;86.082;2022-07-15T12:39:14;99693.50;;;24.38;47.82
61010;BME280;46897;55.340;86.082;2022-07-15T12:41:58;99724.78;;;24.41;47.91
61010;BME280;46897;55.340;86.082;2022-07-15T12:44:29;99719.00;;;24.27;48.04
61010;BME280;46897;55.340;86.082;2022-07-15T12:47:02;99713.59;;;24.11;48.09
61010;BME280;46897;55.340;86.082;2022-07-15T12:49:53;99716.97;;;24.05;48.29
61010;BME280;46897;55.340;86.082;2022-07-15T12:52:30;99714.09;;;23.90;48.36
61010;BME280;46897;55.340;86.082;2022-07-15T12:55:11;99724.88;;;23.82;48.58
61010;BME280;46897;55.340;86.082;2022-07-15T12:57:41;99695.06;;;23.57;48.75
61010;BME280;46897;55.340;86.082;2022-07-15T13:00:14;99715.34;;;23.69;48.87
61010;BME280;46897;55.340;86.082;2022-07-15T13:03:02;99711.78;;;23.61;49.00
61010;BME280;46897;55.340;86.082;2022-07-15T13:05:34;99699.53;;;23.40;49.07
61010;BME280;46897;55.340;86.082;2022-07-15T13:08:07;99724.00;;;23.39;49.10
61010;BME280;46897;55.340;86.082;2022-07-15T13:10:37;99717.53;;;23.23;49.27
61010;BME280;46897;55.340;86.082;2022-07-15T13:13:09;99697.44;;;22.91;49.52
61010;BME280;46897;55.340;86.082;2022-07-15T13:15:39;99720.34;;;22.87;49.66
61010;BME280;46897;55.340;86.082;2022-07-15T13:18:09;99713.94;;;22.62;49.58
61010;BME280;46897;55.340;86.082;2022-07-15T13:20:38;99695.75;;;22.46;49.84
61010;BME280;46897;55.340;86.082;2022-07-15T13:23:09;99710.81;;;22.49;49.93
61010;BME280;46897;55.340;86.082;2022-07-15T13:25:39;99702.94;;;22.37;50.05
61010;BME280;46897;55.340;86.082;2022-07-15T13:28:09;99713.50;;;22.31;50.09
61010;BME280;46897;55.340;86.082;2022-07-15T13:30:39;99712.03;;;22.18;50.13
61010;BME280;46897;55.340;86.082;2022-07-15T13:33:08;99724.94;;;22.15;50.33
61010;BME280;46897;55.340;86.082;2022-07-15T13:35:38;99727.72;;;22.05;50.27
61010;BME280;46897;55.340;86.082;2022-07-15T13:38:08;99721.72;;;21.93;50.59
61010;BME280;46897;55.340;86.082;2022-07-15T13:40:38;99736.63;;;21.88;50.55
61010;BME280;46897;55.340;86.082;2022-07-15T13:43:07;99713.69;;;21.66;50.68
61010;BME280;46897;55.340;86.082;2022-07-15T13:45:37;99732.06;;;21.70;50.82
61010;BME280;46897;55.340;86.082;2022-07-15T13:48:13;99726.44;;;21.64;50.98
61010;BME280;46897;55.340;86.082;2022-07-15T13:50:42;99722.94;;;21.53;50.95
61010;BME280;46897;55.340;86.082;2022-07-15T13:53:30;99719.19;;;21.46;50.90
61010;BME280;46897;55.340;86.082;2022-07-15T13:56:00;99730.66;;;21.38;51.20
61010;BME280;46897;55.340;86.082;2022-07-15T13:58:29;99730.72;;;21.29;51.16
61010;BME280;46897;55.340;86.082;2022-07-15T14:00:58;99699.06;;;21.03;51.78
61010;BME280;46897;55.340;86.082;2022-07-15T14:03:28;99719.47;;;21.06;51.39
61010;BME280;46897;55.340;86.082;2022-07-15T14:05:57;99721.03;;;20.98;51.71
61010;BME280;46897;55.340;86.082;2022-07-15T14:08:26;99728.00;;;20.91;52.05
61010;BME280;46897;55.340;86.082;2022-07-15T14:10:57;99723.19;;;20.85;52.13
61010;BME280;46897;55.340;86.082;2022-07-15T14:13:26;99728.47;;;20.77;52.33
61010;BME280;46897;55.340;86.082;2022-07-15T14:15:56;99729.75;;;20.73;52.53
61010;BME280;46897;55.340;86.082;2022-07-15T14:18:27;99736.81;;;20.64;52.64